Time;durP1;ratioP1;P1;durP2;ratioP2;P2;SDS_P1;SDS_P2;PMS_P1;PMS_P2;Temp;Humidity;BMP_temperature;BMP_pressure;BME280_temperature;BME280_humidity;BME280_pressure;Samples;Min_cycle;Max_cycle;Signal;HPM_P1;HPM_P2
2022/04/22 00:02:04;;;;;;;27.92;18.63;;;10.00;99.90;;;;;;5042137;28;20212;-51
2022/04/22 00:04:33;;;;;;;29.08;18.27;;;10.00;99.90;;;;;;5042082;28;20546;-49
2022/04/22 00:07:01;;;;;;;30.95;19.83;;;9.80;99.90;;;;;;5041725;28;20210;-52
2022/04/22 00:09:29;;;;;;;26.88;18.38;;;9.90;99.90;;;;;;5040818;28;20209;-50
2022/04/22 00:11:56;;;;;;;28.02;18.77;;;10.00;99.90;;;;;;5041861;28;20198;-50
2022/04/22 00:14:25;;;;;;;33.75;20.60;;;10.10;99.90;;;;;;5042054;28;20210;-51
2022/04/22 00:16:52;;;;;;;26.98;17.92;;;10.10;99.90;;;;;;5041948;28;20435;-48
2022/04/22 00:19:19;;;;;;;25.38;19.92;;;10.00;99.90;;;;;;5041626;28;20225;-52
2022/04/22 00:21:47;;;;;;;27.02;19.08;;;10.10;99.90;;;;;;5041314;28;20214;-52
2022/04/22 00:24:16;;;;;;;21.98;17.40;;;10.10;99.90;;;;;;5041529;28;20229;-49
2022/04/22 00:26:43;;;;;;;29.50;19.60;;;10.30;99.90;;;;;;5041912;28;20444;-49
2022/04/22 00:29:11;;;;;;;24.92;18.05;;;10.30;99.90;;;;;;5041942;28;20219;-52
2022/04/22 00:31:39;;;;;;;27.60;18.27;;;10.30;99.90;;;;;;5041894;28;20204;-51
2022/04/22 00:34:06;;;;;;;29.80;20.60;;;10.50;99.90;;;;;;5041934;28;20202;-49
2022/04/22 00:36:33;;;;;;;29.70;19.45;;;10.50;99.90;;;;;;5042043;28;20203;-53
2022/04/22 00:39:05;;;;;;;32.92;20.30;;;10.60;99.90;;;;;;5041524;28;20225;-50
2022/04/22 00:41:32;;;;;;;27.60;20.52;;;10.70;99.90;;;;;;5041682;28;20260;-50
2022/04/22 00:43:59;;;;;;;29.58;18.92;;;10.90;99.90;;;;;;5041339;28;20556;-51
2022/04/22 00:46:30;;;;;;;29.98;20.55;;;11.00;99.90;;;;;;5041592;28;20199;-52
2022/04/22 00:48:57;;;;;;;29.20;19.73;;;11.00;99.90;;;;;;5041250;28;20264;-52
2022/04/22 00:51:24;;;;;;;36.53;24.33;;;10.80;99.90;;;;;;5041583;28;20206;-50
2022/04/22 00:53:52;;;;;;;34.60;23.55;;;10.80;99.90;;;;;;5040677;28;20206;-50
2022/04/22 00:56:20;;;;;;;29.05;20.10;;;10.90;99.90;;;;;;5041538;28;20202;-51
2022/04/22 00:58:52;;;;;;;30.35;22.80;;;10.70;99.90;;;;;;5041210;28;20221;-52
2022/04/22 01:01:20;;;;;;;28.73;20.77;;;10.20;99.90;;;;;;5041203;28;20207;-51
2022/04/22 01:12:06;;;;;;;41.95;23.60;;;10.30;99.90;;;;;;5041067;28;20199;-50
2022/04/22 01:14:34;;;;;;;33.28;22.13;;;10.50;99.90;;;;;;5040813;28;20219;-52
2022/04/22 01:17:02;;;;;;;42.35;24.75;;;10.40;99.90;;;;;;5041185;28;20202;-51
2022/04/22 01:19:30;;;;;;;31.27;22.40;;;10.10;99.90;;;;;;5040887;28;20222;-51
2022/04/22 01:21:57;;;;;;;38.28;24.83;;;10.20;99.90;;;;;;5040988;28;20209;-48
2022/04/22 01:24:27;;;;;;;33.75;24.95;;;10.20;99.90;;;;;;5041014;28;20221;-48
2022/04/22 01:26:55;;;;;;;38.75;24.85;;;10.30;99.90;;;;;;5040492;28;20205;-48
2022/04/22 01:29:23;;;;;;;39.67;25.10;;;10.20;99.90;;;;;;5040872;28;20246;-49
2022/04/22 01:31:50;;;;;;;41.83;25.40;;;10.00;99.90;;;;;;5039826;28;20253;-50
2022/04/22 01:34:18;;;;;;;35.80;22.77;;;9.90;99.90;;;;;;5040832;28;20203;-53
2022/04/22 01:36:48;;;;;;;34.47;24.85;;;9.80;99.90;;;;;;5040377;28;20432;-51
2022/04/22 01:39:15;;;;;;;43.25;24.75;;;9.80;99.90;;;;;;5041168;28;20430;-52
2022/04/22 01:41:43;;;;;;;41.90;27.70;;;9.90;99.90;;;;;;5040081;28;20355;-50
2022/04/22 01:44:10;;;;;;;39.38;25.08;;;9.70;99.90;;;;;;5040435;28;20222;-50
2022/04/22 01:46:37;;;;;;;41.42;25.00;;;9.80;99.90;;;;;;5040235;28;20207;-50
2022/04/22 01:49:05;;;;;;;38.67;24.98;;;10.00;99.90;;;;;;5040441;28;20217;-50
2022/04/22 01:51:32;;;;;;;42.00;26.92;;;9.90;99.90;;;;;;5040346;28;20236;-51
2022/04/22 01:53:59;;;;;;;40.88;23.95;;;9.70;99.90;;;;;;5040064;28;20276;-51
2022/04/22 01:56:27;;;;;;;39.92;26.60;;;9.50;99.90;;;;;;5040447;28;20201;-53
2022/04/22 01:58:54;;;;;;;41.70;25.85;;;9.50;99.90;;;;;;5040087;28;20443;-51
2022/04/22 02:01:21;;;;;;;42.38;27.85;;;9.60;99.90;;;;;;5040376;28;20280;-53
2022/04/22 02:03:48;;;;;;;46.03;28.52;;;9.60;99.90;;;;;;5039708;28;20248;-50
2022/04/22 02:06:15;;;;;;;41.95;27.73;;;9.50;99.90;;;;;;5040119;28;20501;-51
2022/04/22 02:08:43;;;;;;;39.58;25.67;;;9.60;99.90;;;;;;5039690;28;20263;-52
2022/04/22 02:11:10;;;;;;;35.10;23.70;;;9.80;99.90;;;;;;5040453;28;20202;-50
2022/04/22 02:13:37;;;;;;;43.28;25.50;;;9.90;99.90;;;;;;5039610;28;20240;-50
2022/04/22 02:16:06;;;;;;;36.33;26.15;;;9.80;99.90;;;;;;5040154;28;20208;-50
2022/04/22 02:18:37;;;;;;;40.58;26.02;;;9.90;99.90;;;;;;5039801;28;20222;-50
2022/04/22 02:21:05;;;;;;;35.40;25.70;;;10.10;99.90;;;;;;5039982;28;20209;-51
2022/04/22 02:23:33;;;;;;;39.47;24.67;;;10.10;99.90;;;;;;5039760;28;20249;-50
2022/04/22 02:26:01;;;;;;;46.38;29.80;;;10.20;99.90;;;;;;5040055;28;20220;-49
2022/04/22 02:28:31;;;;;;;41.92;29.05;;;10.20;99.90;;;;;;5039990;28;20218;-50
2022/04/22 02:31:04;;;;;;;37.47;26.67;;;10.30;99.90;;;;;;5039559;28;20213;-53
2022/04/22 02:33:33;;;;;;;51.00;29.85;;;10.20;99.90;;;;;;5039715;28;20251;-49
2022/04/22 02:36:01;;;;;;;35.75;26.38;;;10.10;99.90;;;;;;5039367;28;20291;-52
2022/04/22 02:38:29;;;;;;;38.75;24.80;;;10.10;99.90;;;;;;5039785;28;20225;-50
2022/04/22 02:46:29;;;;;;;44.22;27.23;;;10.40;99.90;;;;;;5044728;28;20221;-50
2022/04/22 02:48:59;;;;;;;38.10;26.85;;;10.40;99.90;;;;;;5044200;28;20613;-50
2022/04/22 02:51:27;;;;;;;42.33;25.17;;;10.50;99.90;;;;;;5045002;28;20236;-50
2022/04/22 02:53:54;;;;;;;42.40;25.65;;;10.40;99.90;;;;;;5044665;28;20214;-52
2022/04/22 02:56:23;;;;;;;36.78;27.60;;;10.50;99.90;;;;;;5044069;28;20479;-55
2022/04/22 02:58:55;;;;;;;40.50;25.88;;;10.40;99.90;;;;;;5043412;28;20227;-51
2022/04/22 03:01:22;;;;;;;38.45;24.75;;;10.50;99.90;;;;;;5043017;28;20512;-48
2022/04/22 03:03:50;;;;;;;35.28;23.95;;;10.60;99.90;;;;;;5043738;28;20585;-52
2022/04/22 03:06:17;;;;;;;34.38;22.10;;;10.70;99.90;;;;;;5043311;28;20255;-51
2022/04/22 03:08:45;;;;;;;36.30;23.77;;;10.50;99.90;;;;;;5043784;28;20397;-50
2022/04/22 03:11:20;;;;;;;38.47;23.27;;;10.40;99.90;;;;;;5043592;28;20412;-50
2022/04/22 03:13:56;;;;;;;35.33;23.83;;;10.40;99.90;;;;;;5048526;28;20538;-54
2022/04/22 03:16:28;;;;;;;33.58;22.65;;;10.30;99.90;;;;;;5052293;28;20211;-54
2022/04/22 03:18:56;;;;;;;38.97;23.20;;;10.30;99.90;;;;;;5051920;28;20236;-53
2022/04/22 03:21:23;;;;;;;31.23;22.15;;;10.00;99.90;;;;;;5051158;28;20198;-53
2022/04/22 03:23:51;;;;;;;38.70;23.50;;;9.90;99.90;;;;;;5050065;28;20213;-54
2022/04/22 03:26:18;;;;;;;37.25;25.55;;;9.60;99.90;;;;;;5045195;28;20203;-51
2022/04/22 03:28:52;;;;;;;36.67;24.48;;;9.60;99.90;;;;;;5044975;28;20267;-53
2022/04/22 03:31:20;;;;;;;37.67;22.15;;;9.90;99.90;;;;;;5045290;28;20225;-52
2022/04/22 03:33:47;;;;;;;35.78;25.13;;;9.80;99.90;;;;;;5043200;28;20272;-51
2022/04/22 03:36:14;;;;;;;32.58;20.60;;;9.70;99.90;;;;;;5043985;28;20392;-53
2022/04/22 03:38:46;;;;;;;34.10;23.90;;;9.70;99.90;;;;;;5044119;28;20229;-53
2022/04/22 03:41:13;;;;;;;34.08;21.80;;;9.60;99.90;;;;;;5044281;28;20497;-51
2022/04/22 03:43:41;;;;;;;34.40;22.40;;;9.50;99.90;;;;;;5044288;28;20210;-50
2022/04/22 03:46:08;;;;;;;39.95;24.75;;;9.30;99.90;;;;;;5044536;28;20205;-49
2022/04/22 03:48:36;;;;;;;34.15;21.27;;;9.20;99.90;;;;;;5042981;28;20226;-52
2022/04/22 03:51:03;;;;;;;35.15;23.40;;;9.40;99.90;;;;;;5043196;28;20260;-49
2022/04/22 03:53:31;;;;;;;36.30;24.77;;;9.60;99.90;;;;;;5042636;28;20244;-50
2022/04/22 03:58:10;;;;;;;30.75;21.23;;;9.40;99.90;;;;;;5042380;28;20244;-50
2022/04/22 03:58:46;;;;;;;39.80;24.30;;;9.50;99.90;;;;;;5042494;28;20396;-53
2022/04/22 04:01:14;;;;;;;39.13;23.55;;;9.50;99.90;;;;;;5044909;28;20239;-52
2022/04/22 04:03:41;;;;;;;43.97;25.98;;;9.60;99.90;;;;;;5046531;28;20189;-49
2022/04/22 04:06:09;;;;;;;34.42;23.52;;;9.50;99.90;;;;;;5053368;28;20205;-53
2022/04/22 04:08:36;;;;;;;33.50;22.55;;;9.60;99.90;;;;;;5062058;28;20270;-49
2022/04/22 04:16:23;;;;;;;39.95;25.90;;;9.70;99.90;;;;;;5061960;28;20212;-51
2022/04/22 04:18:50;;;;;;;36.72;24.38;;;9.60;99.90;;;;;;5054213;28;20225;-51
2022/04/22 04:24:07;;;;;;;39.30;25.65;;;9.50;99.90;;;;;;5022112;28;20292;-51
2022/04/22 04:26:35;;;;;;;37.67;23.70;;;9.50;99.90;;;;;;5021858;28;20210;-50
2022/04/22 04:29:02;;;;;;;33.47;23.45;;;9.40;99.90;;;;;;5021864;28;20222;-48
2022/04/22 04:31:31;;;;;;;37.55;23.65;;;9.50;99.90;;;;;;5021893;28;20391;-49
2022/04/22 04:33:58;;;;;;;40.15;22.23;;;9.50;99.90;;;;;;5022141;28;20190;-50
2022/04/22 04:36:25;;;;;;;36.35;23.00;;;9.60;99.90;;;;;;5022034;28;20232;-50
2022/04/22 04:38:53;;;;;;;30.70;19.15;;;9.70;99.90;;;;;;5037029;28;20371;-55
2022/04/22 04:41:20;;;;;;;33.00;21.80;;;10.00;99.90;;;;;;5040852;28;20369;-52
2022/04/22 04:43:47;;;;;;;37.35;22.65;;;10.10;99.90;;;;;;5033135;28;20197;-54
2022/04/22 04:46:15;;;;;;;36.75;23.55;;;10.00;99.90;;;;;;5039032;28;20243;-51
2022/04/22 04:48:46;;;;;;;29.60;22.05;;;10.10;99.90;;;;;;5041663;28;20539;-50
2022/04/22 04:51:13;;;;;;;31.55;21.45;;;10.00;99.90;;;;;;5045594;28;20243;-50
2022/04/22 04:53:40;;;;;;;35.65;22.52;;;9.90;99.90;;;;;;5040721;28;20202;-49
2022/04/22 04:56:08;;;;;;;30.73;22.17;;;9.90;99.90;;;;;;5041253;28;20501;-48
2022/04/22 04:58:36;;;;;;;32.97;21.63;;;9.90;99.90;;;;;;5044440;28;20575;-51
2022/04/22 05:01:06;;;;;;;36.83;22.50;;;9.90;99.90;;;;;;5052593;28;20255;-51
2022/04/22 05:03:33;;;;;;;33.83;22.13;;;9.70;99.90;;;;;;5061110;28;20305;-50
2022/04/22 05:06:02;;;;;;;30.13;23.42;;;9.80;99.90;;;;;;5061269;28;20233;-50
2022/04/22 05:08:30;;;;;;;37.67;25.23;;;10.10;99.90;;;;;;5060768;28;20225;-51
2022/04/22 05:10:57;;;;;;;34.42;24.25;;;10.20;99.90;;;;;;5059230;28;20198;-52
2022/04/22 05:13:25;;;;;;;41.75;25.30;;;10.10;99.90;;;;;;5040982;28;20206;-47
2022/04/22 05:15:53;;;;;;;32.55;23.52;;;10.10;99.90;;;;;;5040611;28;20509;-52
2022/04/22 05:18:21;;;;;;;36.90;23.20;;;9.90;99.90;;;;;;5040947;28;20221;-51
2022/04/22 05:20:48;;;;;;;31.42;21.95;;;10.10;99.90;;;;;;5040492;28;20218;-51
2022/04/22 05:23:16;;;;;;;35.13;24.05;;;10.10;99.90;;;;;;5040459;28;20202;-52
2022/04/22 05:25:46;;;;;;;35.42;22.73;;;10.10;99.90;;;;;;5048449;28;20222;-49
2022/04/22 05:28:14;;;;;;;33.50;23.20;;;10.10;99.90;;;;;;5059739;28;20204;-54
2022/04/22 05:33:27;;;;;;;34.78;23.33;;;10.00;99.90;;;;;;5060556;28;20219;-51
2022/04/22 05:35:54;;;;;;;37.08;23.20;;;9.80;99.90;;;;;;5060175;28;20240;-48
2022/04/22 05:38:24;;;;;;;31.83;21.23;;;9.80;99.90;;;;;;5060178;28;20228;-52
2022/04/22 05:40:51;;;;;;;35.22;24.30;;;9.90;99.90;;;;;;5046865;28;20206;-51
2022/04/22 05:43:25;;;;;;;37.33;25.10;;;10.00;99.90;;;;;;5040536;28;20198;-53
2022/04/22 05:45:55;;;;;;;36.03;25.05;;;10.00;99.90;;;;;;5048771;28;20293;-52
2022/04/22 05:48:23;;;;;;;38.67;24.95;;;10.10;99.90;;;;;;5047952;28;20219;-54
2022/04/22 05:50:50;;;;;;;42.97;26.58;;;10.10;99.90;;;;;;5040075;28;20446;-49
2022/04/22 05:53:19;;;;;;;33.45;22.35;;;10.00;99.90;;;;;;5034333;28;20379;-52
2022/04/22 05:55:46;;;;;;;33.53;22.90;;;10.10;99.90;;;;;;5043765;28;20409;-52
2022/04/22 05:58:14;;;;;;;30.40;21.27;;;10.10;99.90;;;;;;5059045;28;20540;-49
2022/04/22 06:00:41;;;;;;;36.85;24.65;;;10.30;99.90;;;;;;5059802;28;20222;-51
2022/04/22 06:03:11;;;;;;;34.95;22.75;;;10.50;99.90;;;;;;5059427;28;20209;-50
2022/04/22 06:05:42;;;;;;;33.53;23.25;;;10.60;99.90;;;;;;5066014;28;20225;-49
2022/04/22 06:10:55;;;;;;;31.63;21.02;;;10.70;99.90;;;;;;5023865;28;20378;-49
2022/04/22 06:13:23;;;;;;;34.28;22.67;;;10.80;99.90;;;;;;5022940;28;20203;-50
2022/04/22 06:15:50;;;;;;;33.10;21.73;;;10.90;99.90;;;;;;5022656;28;20208;-50
2022/04/22 06:18:17;;;;;;;35.75;23.80;;;11.20;99.90;;;;;;5040667;28;20222;-53
2022/04/22 06:20:44;;;;;;;34.85;20.60;;;11.30;99.90;;;;;;5031423;28;20394;-52
2022/04/22 06:23:11;;;;;;;31.38;20.98;;;11.60;99.90;;;;;;5028904;28;20438;-51
2022/04/22 06:25:45;;;;;;;30.23;21.25;;;11.70;99.90;;;;;;5025290;28;20290;-50
2022/04/22 06:28:16;;;;;;;39.63;23.50;;;11.60;99.90;;;;;;5028927;28;20428;-52
2022/04/22 06:30:48;;;;;;;44.42;24.58;;;11.30;99.90;;;;;;5025349;28;20210;-53
2022/04/22 06:33:16;;;;;;;35.80;25.27;;;11.50;99.90;;;;;;5027270;28;20198;-50
2022/04/22 06:35:44;;;;;;;35.40;23.67;;;11.50;99.90;;;;;;5037516;28;20199;-51
2022/04/22 06:38:15;;;;;;;41.45;27.05;;;11.50;99.90;;;;;;5051273;28;20277;-52
2022/04/22 06:46:18;;;;;;;36.53;25.85;;;12.20;99.90;;;;;;5047068;28;20555;-52
2022/04/22 06:48:46;;;;;;;35.22;22.40;;;12.50;99.90;;;;;;5038116;28;20243;-51
2022/04/22 06:51:17;;;;;;;32.75;23.20;;;12.50;99.90;;;;;;5039998;28;20202;-53
2022/04/22 06:53:45;;;;;;;39.58;24.40;;;12.70;99.90;;;;;;5039811;28;20275;-53
2022/04/22 06:56:19;;;;;;;36.70;26.30;;;12.50;99.90;;;;;;5040540;28;20264;-52
2022/04/22 06:58:46;;;;;;;36.88;24.38;;;12.70;99.90;;;;;;5040111;28;20223;-50
2022/04/22 07:01:14;;;;;;;34.63;24.13;;;13.10;99.90;;;;;;5040826;28;20250;-50
2022/04/22 07:04:02;;;;;;;26.98;23.52;;;13.40;99.90;;;;;;5040983;28;20254;-50
2022/04/22 07:06:31;;;;;;;34.15;25.17;;;13.30;99.90;;;;;;5040273;28;20224;-51
2022/04/22 07:08:59;;;;;;;34.05;22.95;;;13.40;99.90;;;;;;5039956;28;20558;-55
2022/04/22 07:11:30;;;;;;;37.20;25.20;;;13.70;99.90;;;;;;5039295;28;20197;-53
2022/04/22 07:13:59;;;;;;;35.78;25.33;;;13.40;99.90;;;;;;5039479;28;20209;-51
2022/04/22 07:16:28;;;;;;;33.92;24.02;;;13.40;99.90;;;;;;5040614;28;20200;-53
2022/04/22 07:18:57;;;;;;;37.63;26.65;;;13.60;99.90;;;;;;5040550;28;20255;-50
2022/04/22 07:21:26;;;;;;;40.53;27.25;;;14.30;99.90;;;;;;5040698;28;20208;-52
2022/04/22 07:23:55;;;;;;;36.35;26.15;;;14.70;99.90;;;;;;5039615;28;20204;-51
2022/04/22 07:26:24;;;;;;;36.10;25.85;;;14.60;99.90;;;;;;5039725;28;20231;-51
2022/04/22 07:28:52;;;;;;;33.95;25.30;;;14.40;99.90;;;;;;5041905;28;20251;-50
2022/04/22 07:31:20;;;;;;;34.90;25.75;;;13.60;99.90;;;;;;5044210;28;20204;-53
2022/04/22 07:33:49;;;;;;;34.08;24.88;;;13.10;99.90;;;;;;5043806;28;20196;-52
2022/04/22 07:36:17;;;;;;;36.63;24.15;;;13.10;99.90;;;;;;5042600;28;20204;-53
2022/04/22 07:38:47;;;;;;;30.65;23.25;;;13.10;99.90;;;;;;5042038;28;20550;-51
2022/04/22 07:41:18;;;;;;;32.42;24.52;;;12.80;99.90;;;;;;5042614;28;20222;-50
2022/04/22 07:46:47;;;;;;;36.83;21.75;;;12.80;99.90;;;;;;5027113;28;20232;-51
2022/04/22 07:49:15;;;;;;;29.08;22.88;;;13.00;99.90;;;;;;5022552;28;20373;-49
2022/04/22 07:51:43;;;;;;;27.00;20.52;;;13.40;99.90;;;;;;5023722;28;20243;-51
2022/04/22 07:54:14;;;;;;;26.85;20.70;;;13.50;99.90;;;;;;5022247;28;20196;-50
2022/04/22 07:56:42;;;;;;;33.08;21.98;;;13.70;99.90;;;;;;5022650;28;20226;-52
2022/04/22 07:59:11;;;;;;;31.38;22.95;;;13.60;99.90;;;;;;5021830;28;20229;-53
2022/04/22 08:01:38;;;;;;;29.30;21.77;;;13.40;99.90;;;;;;5022240;28;20372;-53
2022/04/22 08:04:06;;;;;;;32.20;24.48;;;13.50;99.90;;;;;;5022192;28;20503;-52
2022/04/22 08:06:34;;;;;;;26.92;19.55;;;13.60;99.90;;;;;;5021619;28;20425;-50
2022/04/22 08:09:04;;;;;;;29.20;20.90;;;13.80;99.90;;;;;;5022460;28;20217;-50
2022/04/22 08:11:35;;;;;;;20.80;17.08;;;14.30;99.90;;;;;;5021945;28;20197;-52
2022/04/22 08:14:02;;;;;;;20.63;16.30;;;14.50;99.90;;;;;;5022018;28;20395;-52
2022/04/22 08:16:30;;;;;;;18.83;14.13;;;14.40;99.90;;;;;;5022193;28;20200;-52
2022/04/22 08:18:57;;;;;;;20.35;14.55;;;14.60;99.90;;;;;;5022087;28;20228;-51
2022/04/22 08:21:33;;;;;;;16.80;15.02;;;14.50;99.90;;;;;;5021728;28;20385;-52
2022/04/22 08:24:01;;;;;;;17.88;14.75;;;15.40;99.90;;;;;;5022414;28;20202;-52
2022/04/22 08:26:31;;;;;;;21.45;15.18;;;15.90;99.90;;;;;;5021851;28;20605;-51
2022/04/22 08:28:58;;;;;;;17.02;14.50;;;15.60;99.90;;;;;;5021707;28;20273;-51
2022/04/22 08:31:25;;;;;;;21.95;15.07;;;14.80;99.90;;;;;;5021606;28;20205;-51
2022/04/22 08:33:55;;;;;;;18.20;13.77;;;14.20;99.90;;;;;;5021763;28;20204;-54
2022/04/22 08:36:27;;;;;;;20.10;15.75;;;13.60;99.90;;;;;;5021909;28;20201;-51
2022/04/22 08:38:57;;;;;;;24.27;17.30;;;13.70;99.90;;;;;;5021266;28;20304;-50
2022/04/22 08:41:25;;;;;;;18.45;15.05;;;13.80;99.90;;;;;;5021363;28;20283;-51
2022/04/22 08:43:56;;;;;;;21.50;17.15;;;13.90;99.90;;;;;;5020892;28;20228;-53
2022/04/22 08:51:56;;;;;;;21.50;15.60;;;13.50;99.90;;;;;;5043890;28;20196;-54
2022/04/22 08:54:29;;;;;;;15.40;13.45;;;13.50;99.90;;;;;;5041838;28;20203;-50
2022/04/22 08:56:57;;;;;;;24.13;16.38;;;13.10;99.90;;;;;;5041183;28;20204;-50
2022/04/22 08:59:25;;;;;;;17.88;14.50;;;12.60;99.90;;;;;;5042561;28;20458;-50
2022/04/22 09:01:56;;;;;;;22.08;16.17;;;12.40;99.90;;;;;;5042946;28;20204;-51
2022/04/22 09:04:25;;;;;;;25.20;18.10;;;12.50;99.90;;;;;;5042628;28;20455;-50
2022/04/22 09:06:54;;;;;;;16.98;14.55;;;12.90;99.90;;;;;;5043843;28;20244;-52
2022/04/22 09:09:23;;;;;;;15.55;13.65;;;13.20;99.90;;;;;;5041066;28;20350;-51
2022/04/22 09:11:52;;;;;;;21.80;16.50;;;13.30;99.90;;;;;;5040559;28;20242;-53
2022/04/22 09:14:23;;;;;;;19.73;14.70;;;13.10;99.90;;;;;;5041158;28;20203;-51
2022/04/22 09:16:51;;;;;;;18.25;14.50;;;13.10;99.90;;;;;;5040541;28;20208;-50
2022/04/22 09:19:19;;;;;;;17.58;15.50;;;13.00;99.90;;;;;;5040451;28;20220;-54
2022/04/22 09:21:56;;;;;;;17.83;16.02;;;13.10;99.90;;;;;;5041134;28;20507;-54
2022/04/22 09:24:23;;;;;;;19.63;16.90;;;13.40;99.90;;;;;;5040586;28;20536;-52
2022/04/22 09:27:03;;;;;;;16.65;14.93;;;13.80;99.90;;;;;;5040396;28;20239;-52
2022/04/22 09:29:43;;;;;;;17.05;15.25;;;13.80;99.90;;;;;;5040752;28;20232;-50
2022/04/22 09:32:11;;;;;;;17.67;14.05;;;13.40;99.90;;;;;;5040896;28;20212;-52
2022/04/22 09:34:42;;;;;;;17.50;13.18;;;13.30;99.90;;;;;;5040288;28;20441;-51
2022/04/22 09:42:56;;;;;;;12.88;11.45;;;12.90;99.90;;;;;;5040116;28;20248;-52
2022/04/22 09:45:38;;;;;;;17.08;14.88;;;12.90;99.90;;;;;;5035278;28;20220;-51
2022/04/22 09:48:18;;;;;;;13.90;12.48;;;13.00;99.90;;;;;;5020267;28;20284;-51
2022/04/22 09:50:56;;;;;;;16.80;12.80;;;12.80;99.90;;;;;;5020123;28;20268;-54
2022/04/22 09:53:35;;;;;;;17.13;12.15;;;12.50;99.90;;;;;;5019847;28;20243;-53
2022/04/22 09:56:07;;;;;;;17.73;11.65;;;12.40;99.90;;;;;;5020236;28;20209;-51
2022/04/22 09:58:35;;;;;;;16.33;10.95;;;12.30;99.90;;;;;;5020045;28;20221;-50
2022/04/22 10:01:06;;;;;;;19.75;10.27;;;12.30;99.90;;;;;;5020104;28;20214;-52
2022/04/22 10:03:36;;;;;;;17.40;11.85;;;12.30;99.90;;;;;;5020271;28;20224;-50
2022/04/22 10:06:04;;;;;;;14.10;11.07;;;12.50;99.90;;;;;;5019837;28;20217;-54
2022/04/22 10:08:37;;;;;;;12.43;9.95;;;12.70;99.90;;;;;;5020120;28;20217;-50
2022/04/22 10:11:07;;;;;;;13.40;10.18;;;12.60;99.90;;;;;;5020052;28;20506;-51
2022/04/22 10:13:43;;;;;;;12.82;10.70;;;12.90;99.90;;;;;;5019711;28;20216;-53
2022/04/22 10:16:17;;;;;;;12.63;10.45;;;13.00;99.90;;;;;;5019897;28;20201;-52
2022/04/22 10:18:44;;;;;;;13.07;10.15;;;13.40;99.90;;;;;;5019402;28;20244;-53
2022/04/22 10:21:11;;;;;;;10.73;9.63;;;13.30;99.90;;;;;;5019131;28;20783;-52
2022/04/22 10:23:46;;;;;;;9.80;8.55;;;13.10;99.90;;;;;;5019810;28;20267;-51
2022/04/22 10:26:13;;;;;;;11.15;8.73;;;13.00;99.90;;;;;;5020195;28;20267;-51
2022/04/22 10:28:44;;;;;;;9.48;8.57;;;13.20;99.90;;;;;;5020293;28;20259;-49
2022/04/22 10:31:11;;;;;;;11.25;10.13;;;13.30;99.90;;;;;;5020399;28;20200;-53
2022/04/22 10:33:46;;;;;;;9.55;8.45;;;13.10;99.90;;;;;;5020128;28;20503;-52
2022/04/22 10:36:20;;;;;;;9.90;8.90;;;12.80;99.90;;;;;;5020114;28;20554;-52
2022/04/22 10:38:48;;;;;;;11.75;8.60;;;13.00;99.90;;;;;;5018890;28;20227;-49
2022/04/22 10:41:21;;;;;;;11.32;10.20;;;13.50;99.90;;;;;;5019822;28;20200;-50
2022/04/22 10:49:40;;;;;;;10.35;8.40;;;13.90;99.90;;;;;;5040336;28;20224;-50
2022/04/22 10:52:17;;;;;;;10.32;9.07;;;14.10;99.90;;;;;;5039349;28;20239;-52
2022/04/22 10:54:58;;;;;;;11.70;9.95;;;14.20;99.90;;;;;;5039659;28;20283;-53
2022/04/22 10:57:32;;;;;;;12.95;9.40;;;14.00;99.90;;;;;;5034527;28;20195;-55
2022/04/22 11:00:09;;;;;;;11.82;9.18;;;13.90;99.90;;;;;;5039761;28;20270;-54
2022/04/22 11:02:46;;;;;;;10.68;9.50;;;13.60;99.90;;;;;;5040322;28;20208;-51
2022/04/22 11:05:19;;;;;;;12.15;8.85;;;13.40;99.90;;;;;;5045440;28;20437;-50
2022/04/22 11:07:50;;;;;;;10.13;9.23;;;13.30;99.90;;;;;;5046129;28;20358;-49
2022/04/22 11:10:19;;;;;;;9.48;8.30;;;13.60;99.90;;;;;;5044628;28;20538;-53
2022/04/22 11:12:56;;;;;;;10.45;9.20;;;13.90;99.90;;;;;;5046930;28;20230;-52
2022/04/22 11:15:42;;;;;;;9.43;7.70;;;13.60;99.90;;;;;;5046118;28;20196;-53
2022/04/22 11:18:13;;;;;;;11.13;9.65;;;13.80;99.90;;;;;;5047370;28;20242;-51
2022/04/22 11:20:51;;;;;;;11.30;8.70;;;13.70;99.90;;;;;;5046113;28;20207;-50
2022/04/22 11:23:19;;;;;;;9.70;8.45;;;13.80;99.90;;;;;;5022853;28;20205;-52
2022/04/22 11:25:46;;;;;;;10.15;8.63;;;13.90;99.90;;;;;;5021514;28;20209;-54
2022/04/22 11:28:14;;;;;;;10.20;9.00;;;13.90;99.90;;;;;;5022778;28;20189;-53
2022/04/22 11:30:42;;;;;;;10.85;8.60;;;13.90;99.90;;;;;;5022779;28;20204;-53
2022/04/22 11:33:46;;;;;;;11.40;8.90;;;13.80;99.90;;;;;;5023365;28;20219;-51
2022/04/22 11:36:13;;;;;;;11.20;9.38;;;14.20;99.90;;;;;;5025821;28;20240;-54
2022/04/22 11:38:51;;;;;;;10.23;9.13;;;14.40;99.90;;;;;;5026617;28;20221;-50
2022/04/22 11:41:19;;;;;;;9.88;8.88;;;14.00;99.90;;;;;;5023480;28;20204;-55
2022/04/22 11:43:47;;;;;;;14.73;10.50;;;13.40;99.90;;;;;;5023315;28;20445;-51
2022/04/22 11:46:15;;;;;;;14.82;11.00;;;13.20;99.90;;;;;;5023204;28;20221;-51
2022/04/22 11:48:54;;;;;;;11.60;10.43;;;13.20;99.90;;;;;;5023259;28;20265;-49
2022/04/22 11:51:22;;;;;;;12.00;10.23;;;13.30;99.90;;;;;;5043704;28;20222;-52
2022/04/22 11:53:52;;;;;;;12.10;10.18;;;13.20;99.90;;;;;;5058233;28;20230;-53
2022/04/22 11:56:22;;;;;;;11.05;9.85;;;13.30;99.90;;;;;;5034040;28;20200;-52
2022/04/22 11:58:56;;;;;;;15.27;10.38;;;13.20;99.90;;;;;;5042043;28;20226;-52
2022/04/22 12:10:02;;;;;;;13.07;10.38;;;13.40;99.90;;;;;;5041929;28;20722;-50
2022/04/22 12:12:33;;;;;;;11.65;8.80;;;13.50;99.90;;;;;;5041706;28;20203;-53
2022/04/22 12:15:06;;;;;;;12.20;10.27;;;13.60;99.90;;;;;;5041832;28;20506;-54
2022/04/22 12:17:33;;;;;;;13.20;9.60;;;13.70;99.90;;;;;;5040292;28;20203;-51
2022/04/22 12:20:00;;;;;;;11.98;9.45;;;13.70;99.90;;;;;;5041830;28;20220;-51
2022/04/22 12:22:31;;;;;;;12.65;8.75;;;14.10;99.90;;;;;;5034789;28;20201;-53
2022/04/22 12:25:13;;;;;;;12.02;10.80;;;14.20;99.90;;;;;;5020669;28;20192;-50
2022/04/22 12:27:41;;;;;;;12.52;10.38;;;13.90;99.90;;;;;;5020489;28;20239;-52
2022/04/22 12:30:11;;;;;;;13.43;9.52;;;13.60;99.90;;;;;;5021290;28;20216;-52
2022/04/22 12:32:39;;;;;;;15.00;10.13;;;13.30;99.90;;;;;;5021953;28;20464;-49
2022/04/22 12:35:11;;;;;;;16.58;10.77;;;12.90;99.90;;;;;;5023909;28;20188;-50
2022/04/22 12:37:46;;;;;;;11.10;10.02;;;12.80;99.90;;;;;;5042021;28;20223;-50
2022/04/22 12:40:15;;;;;;;10.45;9.30;;;12.70;99.90;;;;;;5045014;28;20457;-49
2022/04/22 12:42:42;;;;;;;9.10;8.15;;;12.70;99.90;;;;;;5056206;28;20199;-51
2022/04/22 12:54:05;;;;;;;10.48;9.43;;;12.70;99.90;;;;;;5060894;28;20461;-50
2022/04/22 12:56:34;;;;;;;14.98;13.38;;;12.70;99.90;;;;;;5061010;28;20206;-50
2022/04/22 12:59:05;;;;;;;18.52;15.07;;;12.50;99.90;;;;;;5061089;28;20264;-51
2022/04/22 13:01:36;;;;;;;18.02;15.07;;;12.50;99.90;;;;;;5061597;28;20200;-53
2022/04/22 13:04:05;;;;;;;16.42;14.40;;;12.60;99.90;;;;;;5059923;28;20449;-53
2022/04/22 13:06:38;;;;;;;17.65;14.98;;;12.30;99.90;;;;;;5060858;28;20289;-55
2022/04/22 13:09:07;;;;;;;16.70;15.10;;;12.20;99.90;;;;;;5062055;28;20218;-55
2022/04/22 13:11:35;;;;;;;15.30;12.52;;;12.20;99.90;;;;;;5061699;28;20194;-52
2022/04/22 13:14:04;;;;;;;16.48;14.70;;;12.20;99.90;;;;;;5023563;28;20216;-51
2022/04/22 13:16:31;;;;;;;21.95;14.82;;;12.10;99.90;;;;;;5029106;28;20204;-49
2022/04/22 13:18:59;;;;;;;17.35;15.30;;;12.20;99.90;;;;;;5057625;28;20227;-50
2022/04/22 13:21:28;;;;;;;16.40;14.25;;;12.20;99.90;;;;;;5024619;28;20244;-52
2022/04/22 13:23:55;;;;;;;15.23;13.07;;;12.40;99.90;;;;;;5025913;28;20410;-48
2022/04/22 13:26:24;;;;;;;14.43;12.80;;;12.50;99.90;;;;;;5026093;28;20229;-49
2022/04/22 13:28:55;;;;;;;13.50;12.27;;;12.30;99.90;;;;;;5022541;28;20263;-49
2022/04/22 13:31:23;;;;;;;12.77;11.48;;;12.40;99.90;;;;;;5028397;28;20198;-53
2022/04/22 13:33:50;;;;;;;14.60;11.80;;;12.40;99.90;;;;;;5025304;28;20251;-49
2022/04/22 13:36:18;;;;;;;17.52;12.57;;;12.30;99.90;;;;;;5031722;28;20406;-52
2022/04/22 13:38:45;;;;;;;15.52;14.05;;;12.40;99.90;;;;;;5027780;28;20220;-52
2022/04/22 13:41:14;;;;;;;16.30;12.32;;;12.30;99.90;;;;;;5034266;28;20279;-53
2022/04/22 13:43:43;;;;;;;15.60;13.95;;;12.40;99.90;;;;;;5053435;28;20259;-52
2022/04/22 13:52:21;;;;;;;16.17;14.02;;;12.40;99.90;;;;;;5029038;28;20208;-48
2022/04/22 13:54:48;;;;;;;12.65;11.05;;;12.10;99.90;;;;;;5029070;28;20274;-51
2022/04/22 13:57:15;;;;;;;17.90;14.80;;;12.10;99.90;;;;;;5031301;28;20207;-50
2022/04/22 13:59:42;;;;;;;15.40;13.48;;;12.00;99.90;;;;;;5029765;28;20232;-50